sensor_id;sensor_type;location;lat;lon;timestamp;pressure;altitude;pressure_sealevel;temperature;humidity
29239;BME280;16267;48.194;11.546;2024-02-21T00:01:01;96970.81;;;5.07;88.09
29239;BME280;16267;48.194;11.546;2024-02-21T00:03:27;96965.06;;;5.05;88.81
29239;BME280;16267;48.194;11.546;2024-02-21T00:05:53;96968.75;;;5.00;89.41
29239;BME280;16267;48.194;11.546;2024-02-21T00:08:19;96965.22;;;4.96;89.19
29239;BME280;16267;48.194;11.546;2024-02-21T00:10:44;96963.22;;;4.93;89.62
29239;BME280;16267;48.194;11.546;2024-02-21T00:13:10;96959.78;;;4.92;89.89
29239;BME280;16267;48.194;11.546;2024-02-21T00:15:36;96957.94;;;4.81;90.28
29239;BME280;16267;48.194;11.546;2024-02-21T00:18:02;96949.38;;;4.87;90.87
29239;BME280;16267;48.194;11.546;2024-02-21T00:20:28;96945.44;;;4.81;90.65
29239;BME280;16267;48.194;11.546;2024-02-21T00:22:54;96948.16;;;4.85;91.10
29239;BME280;16267;48.194;11.546;2024-02-21T00:25:20;96943.75;;;4.89;90.99
29239;BME280;16267;48.194;11.546;2024-02-21T00:27:46;96935.00;;;4.88;90.79
29239;BME280;16267;48.194;11.546;2024-02-21T00:30:12;96926.56;;;4.86;91.36
29239;BME280;16267;48.194;11.546;2024-02-21T00:32:38;96933.53;;;4.91;91.05
29239;BME280;16267;48.194;11.546;2024-02-21T00:35:04;96933.88;;;4.89;91.75
29239;BME280;16267;48.194;11.546;2024-02-21T00:37:31;96934.88;;;4.85;91.92
29239;BME280;16267;48.194;11.546;2024-02-21T00:39:57;96928.78;;;4.84;92.21
29239;BME280;16267;48.194;11.546;2024-02-21T00:42:22;96927.03;;;4.76;92.67
29239;BME280;16267;48.194;11.546;2024-02-21T00:44:48;96927.19;;;4.67;93.90
29239;BME280;16267;48.194;11.546;2024-02-21T00:47:14;96921.31;;;4.74;94.07
29239;BME280;16267;48.194;11.546;2024-02-21T00:49:40;96918.66;;;4.74;94.35
29239;BME280;16267;48.194;11.546;2024-02-21T00:52:06;96918.16;;;4.84;94.01
29239;BME280;16267;48.194;11.546;2024-02-21T00:54:32;96919.50;;;4.78;94.69
29239;BME280;16267;48.194;11.546;2024-02-21T00:56:57;96918.91;;;4.85;94.07
29239;BME280;16267;48.194;11.546;2024-02-21T00:59:23;96919.22;;;4.67;95.27
29239;BME280;16267;48.194;11.546;2024-02-21T01:01:49;96914.25;;;4.66;96.28
29239;BME280;16267;48.194;11.546;2024-02-21T01:04:15;96917.19;;;4.77;96.54
29239;BME280;16267;48.194;11.546;2024-02-21T01:06:40;96918.38;;;4.79;96.15
29239;BME280;16267;48.194;11.546;2024-02-21T01:09:10;96916.06;;;4.78;96.11
29239;BME280;16267;48.194;11.546;2024-02-21T01:11:36;96908.00;;;4.74;97.06
29239;BME280;16267;48.194;11.546;2024-02-21T01:14:02;96910.84;;;4.81;97.45
29239;BME280;16267;48.194;11.546;2024-02-21T01:16:28;96906.41;;;4.85;96.94
29239;BME280;16267;48.194;11.546;2024-02-21T01:18:53;96904.53;;;4.86;96.74
29239;BME280;16267;48.194;11.546;2024-02-21T01:21:19;96903.16;;;4.92;96.23
29239;BME280;16267;48.194;11.546;2024-02-21T01:23:45;96893.41;;;4.96;96.21
29239;BME280;16267;48.194;11.546;2024-02-21T01:26:11;96892.50;;;4.92;96.39
29239;BME280;16267;48.194;11.546;2024-02-21T01:28:40;96892.50;;;4.92;96.67
29239;BME280;16267;48.194;11.546;2024-02-21T01:31:06;96881.28;;;4.99;96.72
29239;BME280;16267;48.194;11.546;2024-02-21T01:33:31;96882.59;;;5.05;96.58
29239;BME280;16267;48.194;11.546;2024-02-21T01:36:02;96882.22;;;5.06;95.96
29239;BME280;16267;48.194;11.546;2024-02-21T01:38:28;96884.66;;;5.11;95.68
29239;BME280;16267;48.194;11.546;2024-02-21T01:40:55;96890.63;;;4.92;95.31
29239;BME280;16267;48.194;11.546;2024-02-21T01:43:22;96882.16;;;5.03;95.79
29239;BME280;16267;48.194;11.546;2024-02-21T01:45:50;96878.03;;;5.05;96.50
29239;BME280;16267;48.194;11.546;2024-02-21T01:48:21;96870.53;;;4.95;96.07
29239;BME280;16267;48.194;11.546;2024-02-21T01:50:49;96863.53;;;5.03;95.97
29239;BME280;16267;48.194;11.546;2024-02-21T01:53:21;96862.50;;;5.07;95.66
29239;BME280;16267;48.194;11.546;2024-02-21T01:55:48;96861.72;;;5.07;95.81
29239;BME280;16267;48.194;11.546;2024-02-21T01:58:15;96854.31;;;4.84;95.56
29239;BME280;16267;48.194;11.546;2024-02-21T02:00:43;96856.47;;;4.95;95.78
29239;BME280;16267;48.194;11.546;2024-02-21T02:03:12;96852.81;;;4.99;95.56
29239;BME280;16267;48.194;11.546;2024-02-21T02:05:49;96851.41;;;4.89;95.31
29239;BME280;16267;48.194;11.546;2024-02-21T02:08:21;96849.34;;;4.99;96.29
29239;BME280;16267;48.194;11.546;2024-02-21T02:10:48;96845.22;;;5.01;95.76
29239;BME280;16267;48.194;11.546;2024-02-21T02:13:14;96841.88;;;5.04;95.33
29239;BME280;16267;48.194;11.546;2024-02-21T02:15:48;96837.09;;;5.10;95.30
29239;BME280;16267;48.194;11.546;2024-02-21T02:18:15;96833.91;;;5.04;94.93
29239;BME280;16267;48.194;11.546;2024-02-21T02:20:41;96831.69;;;5.06;95.21
29239;BME280;16267;48.194;11.546;2024-02-21T02:23:12;96826.03;;;5.08;95.64
29239;BME280;16267;48.194;11.546;2024-02-21T02:25:40;96824.56;;;5.10;95.02
29239;BME280;16267;48.194;11.546;2024-02-21T02:28:07;96815.28;;;4.88;95.49
29239;BME280;16267;48.194;11.546;2024-02-21T02:30:35;96813.38;;;4.89;95.35
29239;BME280;16267;48.194;11.546;2024-02-21T02:33:05;96814.50;;;4.88;95.49
29239;BME280;16267;48.194;11.546;2024-02-21T02:35:31;96815.44;;;4.96;96.01
29239;BME280;16267;48.194;11.546;2024-02-21T02:37:58;96811.94;;;4.91;95.36
29239;BME280;16267;48.194;11.546;2024-02-21T02:40:24;96806.78;;;4.99;95.98
29239;BME280;16267;48.194;11.546;2024-02-21T02:42:51;96807.72;;;5.06;95.56
29239;BME280;16267;48.194;11.546;2024-02-21T02:45:18;96805.84;;;5.07;95.19
29239;BME280;16267;48.194;11.546;2024-02-21T02:47:47;96797.09;;;5.06;95.21
29239;BME280;16267;48.194;11.546;2024-02-21T02:50:13;96794.41;;;5.06;95.52
29239;BME280;16267;48.194;11.546;2024-02-21T02:52:39;96786.28;;;4.99;95.24
29239;BME280;16267;48.194;11.546;2024-02-21T02:55:06;96785.41;;;4.95;95.77
29239;BME280;16267;48.194;11.546;2024-02-21T02:57:32;96783.09;;;5.09;95.73
29239;BME280;16267;48.194;11.546;2024-02-21T02:59:58;96784.84;;;5.02;94.74
29239;BME280;16267;48.194;11.546;2024-02-21T03:02:24;96782.84;;;4.99;94.81
29239;BME280;16267;48.194;11.546;2024-02-21T03:04:49;96776.75;;;4.98;95.87
29239;BME280;16267;48.194;11.546;2024-02-21T03:07:16;96782.84;;;4.99;95.65
29239;BME280;16267;48.194;11.546;2024-02-21T03:09:42;96781.56;;;5.08;95.67
29239;BME280;16267;48.194;11.546;2024-02-21T03:12:11;96781.13;;;5.06;94.73
29239;BME280;16267;48.194;11.546;2024-02-21T03:14:37;96778.03;;;5.04;95.14
29239;BME280;16267;48.194;11.546;2024-02-21T03:17:03;96776.66;;;5.10;95.35
29239;BME280;16267;48.194;11.546;2024-02-21T03:19:29;96775.97;;;5.13;94.39
29239;BME280;16267;48.194;11.546;2024-02-21T03:21:55;96781.88;;;5.07;95.05
29239;BME280;16267;48.194;11.546;2024-02-21T03:24:21;96779.91;;;5.04;94.90
29239;BME280;16267;48.194;11.546;2024-02-21T03:26:47;96779.84;;;5.00;94.48
29239;BME280;16267;48.194;11.546;2024-02-21T03:29:15;96780.09;;;5.11;94.52
29239;BME280;16267;48.194;11.546;2024-02-21T03:31:41;96782.84;;;5.14;94.32
29239;BME280;16267;48.194;11.546;2024-02-21T03:34:07;96780.16;;;5.14;94.18
29239;BME280;16267;48.194;11.546;2024-02-21T03:36:33;96784.91;;;5.21;94.28
29239;BME280;16267;48.194;11.546;2024-02-21T03:38:59;96781.13;;;5.22;93.19
29239;BME280;16267;48.194;11.546;2024-02-21T03:41:25;96780.09;;;5.27;93.61
29239;BME280;16267;48.194;11.546;2024-02-21T03:43:51;96786.94;;;5.28;93.63
29239;BME280;16267;48.194;11.546;2024-02-21T03:46:17;96773.13;;;5.22;93.33
29239;BME280;16267;48.194;11.546;2024-02-21T03:48:43;96777.69;;;5.22;93.02
29239;BME280;16267;48.194;11.546;2024-02-21T03:51:09;96771.75;;;5.12;92.92
29239;BME280;16267;48.194;11.546;2024-02-21T03:53:35;96770.81;;;5.21;93.22
29239;BME280;16267;48.194;11.546;2024-02-21T03:56:04;96763.69;;;5.25;93.17
29239;BME280;16267;48.194;11.546;2024-02-21T03:58:33;96767.63;;;5.31;92.59
29239;BME280;16267;48.194;11.546;2024-02-21T04:01:02;96768.91;;;5.37;93.08
29239;BME280;16267;48.194;11.546;2024-02-21T04:03:30;96769.00;;;5.25;91.91
29239;BME280;16267;48.194;11.546;2024-02-21T04:05:56;96767.63;;;5.31;92.53
29239;BME280;16267;48.194;11.546;2024-02-21T04:08:23;96771.91;;;5.35;92.60
29239;BME280;16267;48.194;11.546;2024-02-21T04:10:49;96766.34;;;5.25;91.70
29239;BME280;16267;48.194;11.546;2024-02-21T04:13:14;96772.50;;;5.29;92.07
29239;BME280;16267;48.194;11.546;2024-02-21T04:15:40;96761.03;;;5.25;92.36
29239;BME280;16267;48.194;11.546;2024-02-21T04:18:06;96759.50;;;5.24;92.41
29239;BME280;16267;48.194;11.546;2024-02-21T04:20:32;96761.53;;;5.30;92.62
29239;BME280;16267;48.194;11.546;2024-02-21T04:22:58;96755.19;;;5.19;92.12
29239;BME280;16267;48.194;11.546;2024-02-21T04:25:24;96748.66;;;5.17;92.68
29239;BME280;16267;48.194;11.546;2024-02-21T04:27:50;96747.28;;;5.23;92.14
29239;BME280;16267;48.194;11.546;2024-02-21T04:30:16;96749.19;;;5.22;92.52
29239;BME280;16267;48.194;11.546;2024-02-21T04:32:42;96745.38;;;5.23;92.05
29239;BME280;16267;48.194;11.546;2024-02-21T04:35:08;96741.63;;;5.24;92.03
29239;BME280;16267;48.194;11.546;2024-02-21T04:37:34;96741.13;;;5.19;92.05
29239;BME280;16267;48.194;11.546;2024-02-21T04:40:00;96733.47;;;5.17;91.98
29239;BME280;16267;48.194;11.546;2024-02-21T04:42:26;96728.72;;;5.26;92.55
29239;BME280;16267;48.194;11.546;2024-02-21T04:44:52;96729.09;;;5.09;92.05
29239;BME280;16267;48.194;11.546;2024-02-21T04:47:18;96721.56;;;5.11;92.22
29239;BME280;16267;48.194;11.546;2024-02-21T04:49:45;96718.38;;;5.05;92.30
29239;BME280;16267;48.194;11.546;2024-02-21T04:52:11;96700.97;;;4.92;92.56
29239;BME280;16267;48.194;11.546;2024-02-21T04:54:37;96706.66;;;4.75;93.18
29239;BME280;16267;48.194;11.546;2024-02-21T04:57:04;96701.59;;;4.85;93.08
29239;BME280;16267;48.194;11.546;2024-02-21T04:59:30;96704.94;;;4.82;93.07
29239;BME280;16267;48.194;11.546;2024-02-21T05:01:56;96688.13;;;4.94;93.09
29239;BME280;16267;48.194;11.546;2024-02-21T05:04:21;96685.38;;;4.90;91.97
29239;BME280;16267;48.194;11.546;2024-02-21T05:06:47;96688.81;;;4.91;92.05
29239;BME280;16267;48.194;11.546;2024-02-21T05:09:13;96679.44;;;4.97;91.65
29239;BME280;16267;48.194;11.546;2024-02-21T05:11:39;96678.66;;;4.97;91.25
29239;BME280;16267;48.194;11.546;2024-02-21T05:14:05;96673.00;;;4.98;91.19
29239;BME280;16267;48.194;11.546;2024-02-21T05:16:32;96674.34;;;5.08;91.43
29239;BME280;16267;48.194;11.546;2024-02-21T05:18:58;96669.09;;;5.11;90.71
29239;BME280;16267;48.194;11.546;2024-02-21T05:21:24;96663.44;;;5.13;90.54
29239;BME280;16267;48.194;11.546;2024-02-21T05:23:51;96658.88;;;5.13;90.92
29239;BME280;16267;48.194;11.546;2024-02-21T05:26:25;96657.81;;;5.18;90.54
29239;BME280;16267;48.194;11.546;2024-02-21T05:28:51;96656.22;;;5.13;88.89
29239;BME280;16267;48.194;11.546;2024-02-21T05:31:18;96656.78;;;5.23;90.17
29239;BME280;16267;48.194;11.546;2024-02-21T05:33:45;96659.88;;;5.25;89.56
29239;BME280;16267;48.194;11.546;2024-02-21T05:36:11;96659.03;;;5.21;89.57
29239;BME280;16267;48.194;11.546;2024-02-21T05:38:37;96652.94;;;5.20;89.43
29239;BME280;16267;48.194;11.546;2024-02-21T05:41:03;96652.50;;;5.18;89.49
29239;BME280;16267;48.194;11.546;2024-02-21T05:43:29;96652.38;;;5.11;89.56
29239;BME280;16267;48.194;11.546;2024-02-21T05:45:55;96644.53;;;5.18;89.49
29239;BME280;16267;48.194;11.546;2024-02-21T05:48:22;96646.41;;;5.18;88.46
29239;BME280;16267;48.194;11.546;2024-02-21T05:50:48;96639.75;;;5.08;88.62
29239;BME280;16267;48.194;11.546;2024-02-21T05:53:14;96633.00;;;4.95;88.51
29239;BME280;16267;48.194;11.546;2024-02-21T05:55:40;96628.13;;;4.97;89.18
29239;BME280;16267;48.194;11.546;2024-02-21T05:58:06;96617.56;;;5.00;88.74
29239;BME280;16267;48.194;11.546;2024-02-21T06:00:32;96622.25;;;5.07;88.43
29239;BME280;16267;48.194;11.546;2024-02-21T06:02:58;96618.06;;;5.06;87.77
29239;BME280;16267;48.194;11.546;2024-02-21T06:05:24;96622.53;;;5.02;87.80
29239;BME280;16267;48.194;11.546;2024-02-21T06:07:50;96613.00;;;5.01;87.98
29239;BME280;16267;48.194;11.546;2024-02-21T06:10:16;96618.06;;;5.06;87.41
29239;BME280;16267;48.194;11.546;2024-02-21T06:12:42;96614.38;;;4.95;86.96
29239;BME280;16267;48.194;11.546;2024-02-21T06:15:08;96622.03;;;4.96;86.78
29239;BME280;16267;48.194;11.546;2024-02-21T06:17:34;96617.59;;;4.84;86.28
29239;BME280;16267;48.194;11.546;2024-02-21T06:20:00;96615.69;;;4.85;86.10
29239;BME280;16267;48.194;11.546;2024-02-21T06:22:25;96605.16;;;4.88;87.13
29239;BME280;16267;48.194;11.546;2024-02-21T06:24:51;96608.63;;;4.92;86.57
29239;BME280;16267;48.194;11.546;2024-02-21T06:27:19;96603.13;;;5.01;87.51
29239;BME280;16267;48.194;11.546;2024-02-21T06:29:45;96598.72;;;5.09;87.10
29239;BME280;16267;48.194;11.546;2024-02-21T06:32:12;96597.09;;;5.04;86.32
29239;BME280;16267;48.194;11.546;2024-02-21T06:34:38;96592.22;;;5.06;86.41
29239;BME280;16267;48.194;11.546;2024-02-21T06:37:03;96599.50;;;5.09;86.13
29239;BME280;16267;48.194;11.546;2024-02-21T06:39:29;96602.84;;;5.06;85.44
29239;BME280;16267;48.194;11.546;2024-02-21T06:41:55;96604.41;;;5.07;85.84
29239;BME280;16267;48.194;11.546;2024-02-21T06:44:22;96615.38;;;5.06;84.82
29239;BME280;16267;48.194;11.546;2024-02-21T06:46:48;96618.38;;;5.04;84.81
29239;BME280;16267;48.194;11.546;2024-02-21T06:49:13;96613.84;;;5.05;84.35
29239;BME280;16267;48.194;11.546;2024-02-21T06:51:43;96615.44;;;5.09;84.30
29239;BME280;16267;48.194;11.546;2024-02-21T06:54:09;96612.66;;;5.02;83.26
29239;BME280;16267;48.194;11.546;2024-02-21T06:56:40;96609.72;;;5.07;83.47
29239;BME280;16267;48.194;11.546;2024-02-21T06:59:05;96610.41;;;5.04;84.15
29239;BME280;16267;48.194;11.546;2024-02-21T07:01:32;96610.50;;;5.08;82.64
29239;BME280;16267;48.194;11.546;2024-02-21T07:03:57;96602.16;;;5.09;83.02
29239;BME280;16267;48.194;11.546;2024-02-21T07:06:23;96595.84;;;5.18;83.91
29239;BME280;16267;48.194;11.546;2024-02-21T07:08:49;96598.03;;;5.12;82.54
29239;BME280;16267;48.194;11.546;2024-02-21T07:11:15;96597.91;;;5.24;83.55
29239;BME280;16267;48.194;11.546;2024-02-21T07:13:41;96604.50;;;5.30;84.28
29239;BME280;16267;48.194;11.546;2024-02-21T07:16:07;96600.78;;;5.35;83.81
29239;BME280;16267;48.194;11.546;2024-02-21T07:18:34;96602.16;;;5.29;81.39
29239;BME280;16267;48.194;11.546;2024-02-21T07:20:59;96592.84;;;5.39;82.41
29239;BME280;16267;48.194;11.546;2024-02-21T07:23:25;96593.69;;;5.23;79.89
29239;BME280;16267;48.194;11.546;2024-02-21T07:25:51;96595.38;;;5.31;80.60
29239;BME280;16267;48.194;11.546;2024-02-21T07:28:17;96595.09;;;5.36;80.37
29239;BME280;16267;48.194;11.546;2024-02-21T07:30:43;96597.41;;;5.38;79.99
29239;BME280;16267;48.194;11.546;2024-02-21T07:33:09;96595.38;;;5.31;78.97
29239;BME280;16267;48.194;11.546;2024-02-21T07:35:35;96601.66;;;5.23;79.04
29239;BME280;16267;48.194;11.546;2024-02-21T07:38:04;96595.03;;;5.33;79.94
29239;BME280;16267;48.194;11.546;2024-02-21T07:40:30;96592.22;;;5.45;81.50
29239;BME280;16267;48.194;11.546;2024-02-21T07:42:56;96594.19;;;5.48;79.31
29239;BME280;16267;48.194;11.546;2024-02-21T07:45:22;96577.16;;;5.53;78.70
29239;BME280;16267;48.194;11.546;2024-02-21T07:47:50;96584.94;;;5.85;80.13
29239;BME280;16267;48.194;11.546;2024-02-21T07:50:16;96585.06;;;6.11;80.75
29239;BME280;16267;48.194;11.546;2024-02-21T07:52:42;96575.47;;;6.30;77.68
29239;BME280;16267;48.194;11.546;2024-02-21T07:55:08;96573.66;;;6.64;75.73
29239;BME280;16267;48.194;11.546;2024-02-21T07:57:36;96569.69;;;7.07;74.90
29239;BME280;16267;48.194;11.546;2024-02-21T08:00:03;96555.63;;;7.44;71.02
29239;BME280;16267;48.194;11.546;2024-02-21T08:02:35;96553.38;;;7.50;69.84
29239;BME280;16267;48.194;11.546;2024-02-21T08:05:01;96537.44;;;7.57;68.36
29239;BME280;16267;48.194;11.546;2024-02-21T08:07:27;96527.03;;;7.86;67.25
29239;BME280;16267;48.194;11.546;2024-02-21T08:09:54;96519.22;;;8.66;63.34
29239;BME280;16267;48.194;11.546;2024-02-21T08:12:20;96515.00;;;9.59;60.25
29239;BME280;16267;48.194;11.546;2024-02-21T08:14:46;96502.00;;;10.12;56.92
29239;BME280;16267;48.194;11.546;2024-02-21T08:17:11;96500.47;;;9.96;56.44
29239;BME280;16267;48.194;11.546;2024-02-21T08:19:37;96506.22;;;10.20;55.79
29239;BME280;16267;48.194;11.546;2024-02-21T08:22:03;96508.91;;;10.23;54.72
29239;BME280;16267;48.194;11.546;2024-02-21T08:24:29;96509.28;;;10.08;57.74
29239;BME280;16267;48.194;11.546;2024-02-21T08:26:54;96509.69;;;10.31;56.08
29239;BME280;16267;48.194;11.546;2024-02-21T08:29:20;96505.84;;;10.32;56.56
29239;BME280;16267;48.194;11.546;2024-02-21T08:31:46;96509.28;;;10.15;53.69
29239;BME280;16267;48.194;11.546;2024-02-21T08:34:12;96512.34;;;10.13;55.01
29239;BME280;16267;48.194;11.546;2024-02-21T08:36:38;96499.72;;;10.32;56.13
29239;BME280;16267;48.194;11.546;2024-02-21T08:39:04;96513.13;;;10.32;55.21
29239;BME280;16267;48.194;11.546;2024-02-21T08:41:34;96516.53;;;10.25;54.66
29239;BME280;16267;48.194;11.546;2024-02-21T08:44:00;96515.78;;;9.92;52.94
29239;BME280;16267;48.194;11.546;2024-02-21T08:46:26;96513.03;;;9.49;52.94
29239;BME280;16267;48.194;11.546;2024-02-21T08:48:54;96520.31;;;9.52;56.15
29239;BME280;16267;48.194;11.546;2024-02-21T08:51:20;96516.13;;;9.66;56.71
29239;BME280;16267;48.194;11.546;2024-02-21T08:53:47;96514.22;;;9.70;53.76
29239;BME280;16267;48.194;11.546;2024-02-21T08:56:13;96504.66;;;9.72;54.69
29239;BME280;16267;48.194;11.546;2024-02-21T08:58:40;96508.13;;;10.09;53.49
29239;BME280;16267;48.194;11.546;2024-02-21T09:01:07;96500.84;;;9.91;53.64
29239;BME280;16267;48.194;11.546;2024-02-21T09:03:37;96500.06;;;9.83;53.46
29239;BME280;16267;48.194;11.546;2024-02-21T09:06:07;96498.19;;;9.84;54.49
29239;BME280;16267;48.194;11.546;2024-02-21T09:08:33;96499.69;;;9.78;53.42
29239;BME280;16267;48.194;11.546;2024-02-21T09:11:02;96507.00;;;10.06;54.83
29239;BME280;16267;48.194;11.546;2024-02-21T09:13:29;96493.97;;;10.30;55.45
29239;BME280;16267;48.194;11.546;2024-02-21T09:15:55;96500.09;;;10.34;54.24
29239;BME280;16267;48.194;11.546;2024-02-21T09:18:22;96500.84;;;10.38;56.41
29239;BME280;16267;48.194;11.546;2024-02-21T09:20:48;96501.25;;;10.33;55.40
29239;BME280;16267;48.194;11.546;2024-02-21T09:23:14;96500.09;;;10.48;54.95
29239;BME280;16267;48.194;11.546;2024-02-21T09:25:39;96502.78;;;10.34;53.29
29239;BME280;16267;48.194;11.546;2024-02-21T09:28:05;96508.91;;;10.20;52.94
29239;BME280;16267;48.194;11.546;2024-02-21T09:30:35;96503.13;;;10.25;53.42
29239;BME280;16267;48.194;11.546;2024-02-21T09:33:01;96498.56;;;10.33;54.33
29239;BME280;16267;48.194;11.546;2024-02-21T09:35:28;96500.44;;;10.50;54.09
29239;BME280;16267;48.194;11.546;2024-02-21T09:37:54;96488.09;;;10.78;55.02
29239;BME280;16267;48.194;11.546;2024-02-21T09:40:20;96494.56;;;10.98;54.98
29239;BME280;16267;48.194;11.546;2024-02-21T09:42:47;96494.91;;;11.07;54.95
29239;BME280;16267;48.194;11.546;2024-02-21T09:45:23;96482.63;;;11.03;52.44
29239;BME280;16267;48.194;11.546;2024-02-21T09:48:35;96485.28;;;11.13;53.47
29239;BME280;16267;48.194;11.546;2024-02-21T09:51:06;96481.56;;;11.63;49.34
29239;BME280;16267;48.194;11.546;2024-02-21T09:53:32;96482.03;;;11.51;49.34
29239;BME280;16267;48.194;11.546;2024-02-21T09:55:59;96485.22;;;11.31;48.80
29239;BME280;16267;48.194;11.546;2024-02-21T09:58:26;96482.50;;;11.35;48.01
29239;BME280;16267;48.194;11.546;2024-02-21T10:00:53;96473.19;;;11.47;49.48
29239;BME280;16267;48.194;11.546;2024-02-21T10:03:19;96465.78;;;11.65;50.23
29239;BME280;16267;48.194;11.546;2024-02-21T10:05:49;96457.31;;;11.70;50.66
29239;BME280;16267;48.194;11.546;2024-02-21T10:08:19;96461.88;;;11.77;51.27
29239;BME280;16267;48.194;11.546;2024-02-21T10:10:45;96459.50;;;11.82;48.55
29239;BME280;16267;48.194;11.546;2024-02-21T10:13:26;96452.16;;;11.97;48.77
29239;BME280;16267;48.194;11.546;2024-02-21T10:16:07;96453.06;;;12.25;49.26
29239;BME280;16267;48.194;11.546;2024-02-21T10:18:34;96455.84;;;12.52;45.78
29239;BME280;16267;48.194;11.546;2024-02-21T10:21:07;96456.03;;;12.72;46.01
29239;BME280;16267;48.194;11.546;2024-02-21T10:23:49;96455.13;;;12.82;46.07
29239;BME280;16267;48.194;11.546;2024-02-21T10:26:18;96450.50;;;12.83;44.87
29239;BME280;16267;48.194;11.546;2024-02-21T10:28:44;96446.78;;;12.73;46.10
29239;BME280;16267;48.194;11.546;2024-02-21T10:31:20;96441.25;;;12.49;45.13
29239;BME280;16267;48.194;11.546;2024-02-21T10:33:57;96445.16;;;12.45;45.56
29239;BME280;16267;48.194;11.546;2024-02-21T10:36:23;96438.06;;;12.24;44.68
29239;BME280;16267;48.194;11.546;2024-02-21T10:38:51;96424.84;;;12.37;45.23
29239;BME280;16267;48.194;11.546;2024-02-21T10:41:20;96418.19;;;12.48;47.11
29239;BME280;16267;48.194;11.546;2024-02-21T10:43:55;96415.34;;;12.63;46.36
29239;BME280;16267;48.194;11.546;2024-02-21T10:46:23;96414.34;;;12.80;47.15
29239;BME280;16267;48.194;11.546;2024-02-21T10:49:07;96398.06;;;12.91;45.59
29239;BME280;16267;48.194;11.546;2024-02-21T10:51:41;96393.16;;;12.82;44.55
29239;BME280;16267;48.194;11.546;2024-02-21T10:55:01;96383.63;;;13.05;44.81
29239;BME280;16267;48.194;11.546;2024-02-21T10:57:06;96376.69;;;13.34;44.20
29239;BME280;16267;48.194;11.546;2024-02-21T10:59:35;96368.81;;;13.20;43.60
29239;BME280;16267;48.194;11.546;2024-02-21T11:02:03;96371.03;;;13.25;44.83
29239;BME280;16267;48.194;11.546;2024-02-21T11:04:29;96370.56;;;13.34;44.71
29239;BME280;16267;48.194;11.546;2024-02-21T11:06:56;96366.94;;;13.44;45.03
29239;BME280;16267;48.194;11.546;2024-02-21T11:09:33;96359.38;;;13.59;42.84
29239;BME280;16267;48.194;11.546;2024-02-21T11:12:05;96352.16;;;13.76;43.09
29239;BME280;16267;48.194;11.546;2024-02-21T11:14:32;96337.75;;;14.06;41.35
29239;BME280;16267;48.194;11.546;2024-02-21T11:16:58;96341.00;;;14.17;40.06
29239;BME280;16267;48.194;11.546;2024-02-21T11:19:29;96326.47;;;14.31;41.10
29239;BME280;16267;48.194;11.546;2024-02-21T11:21:58;96323.03;;;14.31;39.49
29239;BME280;16267;48.194;11.546;2024-02-21T11:24:34;96312.41;;;14.40;38.54
29239;BME280;16267;48.194;11.546;2024-02-21T11:27:16;96305.34;;;14.66;40.30
29239;BME280;16267;48.194;11.546;2024-02-21T11:32:10;96294.00;;;14.91;39.09
29239;BME280;16267;48.194;11.546;2024-02-21T11:34:37;96294.00;;;15.07;39.57
29239;BME280;16267;48.194;11.546;2024-02-21T11:37:13;96295.66;;;14.85;36.32
29239;BME280;16267;48.194;11.546;2024-02-21T11:39:43;96287.09;;;14.54;37.65
29239;BME280;16267;48.194;11.546;2024-02-21T11:42:09;96289.38;;;14.55;37.37
29239;BME280;16267;48.194;11.546;2024-02-21T11:44:36;96281.56;;;14.77;39.87
29239;BME280;16267;48.194;11.546;2024-02-21T11:47:08;96280.97;;;14.69;37.54
29239;BME280;16267;48.194;11.546;2024-02-21T11:49:47;96265.00;;;14.19;36.28
29239;BME280;16267;48.194;11.546;2024-02-21T11:52:16;96273.41;;;14.24;37.92
29239;BME280;16267;48.194;11.546;2024-02-21T11:54:44;96263.75;;;14.23;36.73
29239;BME280;16267;48.194;11.546;2024-02-21T11:57:10;96254.97;;;14.19;38.28
29239;BME280;16267;48.194;11.546;2024-02-21T11:59:40;96261.25;;;14.13;38.15
29239;BME280;16267;48.194;11.546;2024-02-21T12:02:06;96244.13;;;14.03;36.53
29239;BME280;16267;48.194;11.546;2024-02-21T12:04:33;96246.88;;;13.99;35.29
29239;BME280;16267;48.194;11.546;2024-02-21T12:06:59;96236.31;;;13.89;34.57
29239;BME280;16267;48.194;11.546;2024-02-21T12:09:25;96221.06;;;13.98;35.83
29239;BME280;16267;48.194;11.546;2024-02-21T12:12:05;96219.63;;;13.94;33.40
29239;BME280;16267;48.194;11.546;2024-02-21T12:14:35;96223.03;;;13.98;35.78
29239;BME280;16267;48.194;11.546;2024-02-21T12:17:02;96215.94;;;14.04;36.10
29239;BME280;16267;48.194;11.546;2024-02-21T12:19:32;96211.13;;;13.95;34.12
29239;BME280;16267;48.194;11.546;2024-02-21T12:22:00;96205.31;;;13.97;34.68
29239;BME280;16267;48.194;11.546;2024-02-21T12:24:27;96190.78;;;13.71;33.05
29239;BME280;16267;48.194;11.546;2024-02-21T12:26:55;96196.25;;;13.87;35.15
29239;BME280;16267;48.194;11.546;2024-02-21T12:29:25;96196.44;;;13.96;35.71
29239;BME280;16267;48.194;11.546;2024-02-21T12:31:51;96185.81;;;13.89;35.09
29239;BME280;16267;48.194;11.546;2024-02-21T12:34:18;96181.78;;;13.97;37.06
29239;BME280;16267;48.194;11.546;2024-02-21T12:36:45;96178.88;;;13.88;34.32
29239;BME280;16267;48.194;11.546;2024-02-21T12:39:14;96177.53;;;13.96;32.88
29239;BME280;16267;48.194;11.546;2024-02-21T12:41:41;96168.81;;;14.09;36.29
29239;BME280;16267;48.194;11.546;2024-02-21T12:44:08;96164.59;;;14.07;35.73
29239;BME280;16267;48.194;11.546;2024-02-21T12:46:35;96144.88;;;14.11;35.05
29239;BME280;16267;48.194;11.546;2024-02-21T12:49:04;96152.03;;;14.01;34.04
29239;BME280;16267;48.194;11.546;2024-02-21T12:51:34;96146.47;;;14.08;36.02
29239;BME280;16267;48.194;11.546;2024-02-21T12:54:00;96141.00;;;14.12;33.79
29239;BME280;16267;48.194;11.546;2024-02-21T12:56:26;96133.69;;;13.92;31.67
29239;BME280;16267;48.194;11.546;2024-02-21T12:58:57;96128.72;;;13.91;32.71
29239;BME280;16267;48.194;11.546;2024-02-21T13:01:23;96127.78;;;13.81;32.44